Terminal Aerodrome Forecast
Issued by NWS

Home | Current Version | Previous Version | Text Only | Print | Product List | Glossary On
Versions: 1 2 3 4 5 6 7 8 9 10 11 12 13 14 15 16 17 18
000
FTUS43 KBIS 220135 AAA
TAFJMS
TAF AMD
KJMS 220135Z 2202/2224 23004KT P6SM VCSH BKN100
      TEMPO 2202/2204 6SM -SHRA BKN070
     FM220600 VRB04KT P6SM BKN060
     FM220900 27005KT P6SM VCSH BKN020
     FM221200 30007KT P6SM VCSH BKN008
     FM221800 35012KT P6SM OVC005
     FM222100 36015G23KT P6SM OVC010=

USA.gov is the U.S. government's official web portal to all federal, state and local government web resources and services.